Main page
METAR-TAF:

METAR-TAF

Airports :

Bolzano, Italy

latitude: 46-28N, longitude: 011-20E, elevation: 262 m

Current weather observation

The report was made 1 hour and 4 minutes ago, at 20:50 UTC
Wind 3 kt from variable directions
Temperature 2°C
Humidity 80%
Pressure 1020 hPa
Visibility 10 km or more
Broken clouds at a height of 5000 ft

METAR: LIPB 152050Z VRB03KT 9999 BKN050 02/M01 Q1020 RMK MON INVIS

Time: 22:54 (21:54 UTC)

Forecast

The report was made 4 hours and 54 minutes ago, at 17:00 UTC
Forecast valid from 15 at 18 UTC to 16 at 18 UTC
Wind 5 kt from variable directions
Visibility 10 km or more
no clouds below 1500 m and no cumulonimbus

TAF: LIPB 151700Z 1518/1618 VRB05KT CAVOK

Weather observations and forecasts of more than 4000 airports (METAR and TAF reports).

The available stations are represented by yellow and red dots on the map.

Hover mouse over dot to see the name of the station.

Then click to see weather observations and forecasts.

To change the map : click on the green buttons with a black cross to zoom in, on the green button with a dash to zoom out, or on the green arrows for adjacent maps.


METAR-TAF: